sensor_id;sensor_type;location;lat;lon;timestamp;pressure;altitude;pressure_sealevel;temperature;humidity
46638;BME280;32365;46.938;7.390;2022-11-11T19:11:21;96759.75;;;6.31;100.00
46638;BME280;32365;46.938;7.390;2022-11-11T19:13:48;96770.03;;;6.31;100.00
46638;BME280;32365;46.938;7.390;2022-11-11T19:16:14;96776.31;;;6.20;100.00
46638;BME280;32365;46.938;7.390;2022-11-11T19:18:41;96777.44;;;6.26;100.00
46638;BME280;32365;46.938;7.390;2022-11-11T19:21:08;96777.75;;;6.23;100.00
46638;BME280;32365;46.938;7.390;2022-11-11T19:23:35;96778.84;;;6.28;100.00
46638;BME280;32365;46.938;7.390;2022-11-11T19:26:01;96777.56;;;6.32;100.00
46638;BME280;32365;46.938;7.390;2022-11-11T19:28:29;96775.19;;;6.31;100.00
46638;BME280;32365;46.938;7.390;2022-11-11T19:30:59;96785.94;;;6.35;100.00
46638;BME280;32365;46.938;7.390;2022-11-11T19:33:25;96789.47;;;6.34;100.00
46638;BME280;32365;46.938;7.390;2022-11-11T19:35:55;96790.25;;;6.34;100.00
46638;BME280;32365;46.938;7.390;2022-11-11T19:38:22;96798.00;;;6.26;100.00
46638;BME280;32365;46.938;7.390;2022-11-11T19:40:48;96797.69;;;6.21;100.00
46638;BME280;32365;46.938;7.390;2022-11-11T19:43:14;96798.34;;;6.14;100.00
46638;BME280;32365;46.938;7.390;2022-11-11T19:45:43;96801.91;;;6.05;100.00
46638;BME280;32365;46.938;7.390;2022-11-11T19:48:09;96803.97;;;6.01;100.00
46638;BME280;32365;46.938;7.390;2022-11-11T19:50:36;96804.47;;;6.05;100.00
46638;BME280;32365;46.938;7.390;2022-11-11T19:53:02;96805.13;;;6.07;100.00
46638;BME280;32365;46.938;7.390;2022-11-11T19:55:29;96806.09;;;6.06;100.00
46638;BME280;32365;46.938;7.390;2022-11-11T19:57:55;96806.72;;;6.00;100.00
46638;BME280;32365;46.938;7.390;2022-11-11T20:00:21;96807.53;;;6.00;100.00
46638;BME280;32365;46.938;7.390;2022-11-11T20:02:49;96800.13;;;5.97;100.00
46638;BME280;32365;46.938;7.390;2022-11-11T20:05:16;96810.88;;;6.18;100.00
46638;BME280;32365;46.938;7.390;2022-11-11T20:07:42;96815.38;;;6.24;100.00
46638;BME280;32365;46.938;7.390;2022-11-11T20:10:08;96823.25;;;6.14;100.00
46638;BME280;32365;46.938;7.390;2022-11-11T20:12:35;96820.81;;;6.21;100.00
46638;BME280;32365;46.938;7.390;2022-11-11T20:15:01;96818.44;;;6.11;100.00
46638;BME280;32365;46.938;7.390;2022-11-11T20:17:28;96816.66;;;6.20;100.00
46638;BME280;32365;46.938;7.390;2022-11-11T20:19:55;96809.91;;;6.10;100.00
46638;BME280;32365;46.938;7.390;2022-11-11T20:22:22;96816.34;;;5.98;100.00
46638;BME280;32365;46.938;7.390;2022-11-11T20:24:48;96821.19;;;6.01;100.00
46638;BME280;32365;46.938;7.390;2022-11-11T20:27:17;96830.16;;;5.97;100.00
46638;BME280;32365;46.938;7.390;2022-11-11T20:29:43;96827.28;;;5.92;100.00
46638;BME280;32365;46.938;7.390;2022-11-11T20:32:10;96831.31;;;5.86;100.00
46638;BME280;32365;46.938;7.390;2022-11-11T20:34:37;96837.41;;;5.85;100.00
46638;BME280;32365;46.938;7.390;2022-11-11T20:37:04;96845.75;;;5.79;100.00
46638;BME280;32365;46.938;7.390;2022-11-11T20:39:31;96841.56;;;5.78;100.00
46638;BME280;32365;46.938;7.390;2022-11-11T20:41:57;96849.91;;;5.80;100.00
46638;BME280;32365;46.938;7.390;2022-11-11T20:44:23;96841.56;;;5.69;100.00
46638;BME280;32365;46.938;7.390;2022-11-11T20:46:50;96837.38;;;5.68;100.00
46638;BME280;32365;46.938;7.390;2022-11-11T20:49:17;96845.28;;;5.67;100.00
46638;BME280;32365;46.938;7.390;2022-11-11T20:51:43;96845.91;;;5.61;100.00
46638;BME280;32365;46.938;7.390;2022-11-11T20:54:11;96847.63;;;5.35;100.00
46638;BME280;32365;46.938;7.390;2022-11-11T20:56:37;96845.72;;;5.37;100.00
46638;BME280;32365;46.938;7.390;2022-11-11T20:59:04;96847.97;;;5.41;100.00
46638;BME280;32365;46.938;7.390;2022-11-11T21:01:30;96838.31;;;5.26;100.00
46638;BME280;32365;46.938;7.390;2022-11-11T21:03:58;96838.81;;;5.21;100.00
46638;BME280;32365;46.938;7.390;2022-11-11T21:06:25;96841.19;;;5.15;100.00
46638;BME280;32365;46.938;7.390;2022-11-11T21:08:53;96842.81;;;5.24;100.00
46638;BME280;32365;46.938;7.390;2022-11-11T21:11:21;96843.28;;;5.19;100.00
46638;BME280;32365;46.938;7.390;2022-11-11T21:13:51;96840.22;;;5.16;100.00
46638;BME280;32365;46.938;7.390;2022-11-11T21:16:18;96836.84;;;5.23;100.00
46638;BME280;32365;46.938;7.390;2022-11-11T21:18:45;96834.63;;;5.20;100.00
46638;BME280;32365;46.938;7.390;2022-11-11T21:21:13;96835.75;;;5.26;100.00
46638;BME280;32365;46.938;7.390;2022-11-11T21:23:39;96836.84;;;5.15;100.00
46638;BME280;32365;46.938;7.390;2022-11-11T21:26:07;96842.16;;;5.22;100.00
46638;BME280;32365;46.938;7.390;2022-11-11T21:28:35;96833.00;;;5.19;100.00
46638;BME280;32365;46.938;7.390;2022-11-11T21:31:03;96841.66;;;5.18;100.00
46638;BME280;32365;46.938;7.390;2022-11-11T21:33:29;96838.47;;;5.24;100.00
46638;BME280;32365;46.938;7.390;2022-11-11T21:35:59;96846.50;;;5.21;100.00
46638;BME280;32365;46.938;7.390;2022-11-11T21:38:26;96843.75;;;5.15;100.00
46638;BME280;32365;46.938;7.390;2022-11-11T21:40:59;96842.63;;;5.09;100.00
46638;BME280;32365;46.938;7.390;2022-11-11T21:43:25;96841.47;;;5.03;100.00
46638;BME280;32365;46.938;7.390;2022-11-11T21:45:53;96836.84;;;5.07;100.00
46638;BME280;32365;46.938;7.390;2022-11-11T21:48:23;96840.81;;;4.93;100.00
46638;BME280;32365;46.938;7.390;2022-11-11T21:50:49;96842.19;;;4.79;100.00
46638;BME280;32365;46.938;7.390;2022-11-11T21:53:16;96839.31;;;4.82;100.00
46638;BME280;32365;46.938;7.390;2022-11-11T21:55:42;96839.13;;;4.75;100.00
46638;BME280;32365;46.938;7.390;2022-11-11T21:58:09;96846.06;;;4.83;100.00
46638;BME280;32365;46.938;7.390;2022-11-11T22:00:35;96841.53;;;4.77;100.00
46638;BME280;32365;46.938;7.390;2022-11-11T22:03:02;96846.16;;;4.73;100.00
46638;BME280;32365;46.938;7.390;2022-11-11T22:05:29;96839.28;;;4.74;100.00
46638;BME280;32365;46.938;7.390;2022-11-11T22:07:55;96830.66;;;4.75;100.00
46638;BME280;32365;46.938;7.390;2022-11-11T22:10:21;96838.97;;;4.77;100.00
46638;BME280;32365;46.938;7.390;2022-11-11T22:12:48;96841.41;;;4.78;100.00
46638;BME280;32365;46.938;7.390;2022-11-11T22:15:14;96836.59;;;4.84;100.00
46638;BME280;32365;46.938;7.390;2022-11-11T22:17:41;96838.50;;;4.82;100.00
46638;BME280;32365;46.938;7.390;2022-11-11T22:20:09;96840.28;;;4.89;100.00
46638;BME280;32365;46.938;7.390;2022-11-11T22:22:35;96850.56;;;4.89;100.00
46638;BME280;32365;46.938;7.390;2022-11-11T22:25:01;96840.09;;;4.83;100.00
46638;BME280;32365;46.938;7.390;2022-11-11T22:27:28;96835.59;;;4.68;100.00
46638;BME280;32365;46.938;7.390;2022-11-11T22:29:54;96833.50;;;4.72;100.00
46638;BME280;32365;46.938;7.390;2022-11-11T22:32:20;96840.63;;;4.52;100.00
46638;BME280;32365;46.938;7.390;2022-11-11T22:34:47;96833.09;;;4.50;100.00
46638;BME280;32365;46.938;7.390;2022-11-11T22:37:14;96835.34;;;4.53;100.00
46638;BME280;32365;46.938;7.390;2022-11-11T22:39:41;96839.56;;;4.62;100.00
46638;BME280;32365;46.938;7.390;2022-11-11T22:42:07;96840.66;;;4.60;100.00
46638;BME280;32365;46.938;7.390;2022-11-11T22:44:33;96841.03;;;4.73;100.00
46638;BME280;32365;46.938;7.390;2022-11-11T22:47:00;96846.28;;;4.63;100.00
46638;BME280;32365;46.938;7.390;2022-11-11T22:49:26;96843.00;;;4.80;100.00
46638;BME280;32365;46.938;7.390;2022-11-11T22:51:52;96850.72;;;4.88;100.00
46638;BME280;32365;46.938;7.390;2022-11-11T22:54:20;96839.59;;;4.71;100.00
46638;BME280;32365;46.938;7.390;2022-11-11T22:56:46;96845.22;;;4.74;100.00
46638;BME280;32365;46.938;7.390;2022-11-11T22:59:13;96842.84;;;4.81;100.00
46638;BME280;32365;46.938;7.390;2022-11-11T23:01:39;96836.09;;;4.80;100.00
46638;BME280;32365;46.938;7.390;2022-11-11T23:04:07;96833.22;;;4.83;100.00
46638;BME280;32365;46.938;7.390;2022-11-11T23:06:36;96825.66;;;4.82;100.00
46638;BME280;32365;46.938;7.390;2022-11-11T23:09:05;96825.19;;;4.78;100.00
46638;BME280;32365;46.938;7.390;2022-11-11T23:11:33;96824.38;;;4.77;100.00
46638;BME280;32365;46.938;7.390;2022-11-11T23:14:00;96821.97;;;4.76;100.00
46638;BME280;32365;46.938;7.390;2022-11-11T23:16:27;96826.41;;;4.66;100.00
